Time;durP1;ratioP1;P1;durP2;ratioP2;P2;SDS_P1;SDS_P2;PMS_P1;PMS_P2;Temp;Humidity;BMP_temperature;BMP_pressure;BME280_temperature;BME280_humidity;BME280_pressure;Samples;Min_cycle;Max_cycle;Signal;HPM_P1;HPM_P2
2024/01/13 00:01:56;;;;;;;28.40;10.90;;;;;;;-9.08;58.69;99481.90;78994;1300;3012706;-70
2024/01/13 00:04:24;;;;;;;30.40;9.90;;;;;;;-9.41;59.34;99478.23;78006;1300;3026627;-72
2024/01/13 00:06:51;;;;;;;26.70;9.50;;;;;;;-9.69;60.21;99474.59;79741;1301;3018766;-71
2024/01/13 00:09:17;;;;;;;10.90;5.00;;;;;;;-9.82;61.00;99472.29;79414;1300;3011694;-71
2024/01/13 00:11:45;;;;;;;15.90;5.30;;;;;;;-9.64;61.06;99472.14;77889;1306;3028634;-74
2024/01/13 00:14:11;;;;;;;31.80;8.90;;;;;;;-8.78;59.75;99476.50;79076;1303;3021417;-73
2024/01/13 00:16:38;;;;;;;27.50;9.80;;;;;;;-8.55;58.78;99476.04;79020;1305;3011472;-73
2024/01/13 00:19:06;;;;;;;25.70;9.30;;;;;;;-8.75;58.68;99476.04;77889;1305;3028660;-73
2024/01/13 00:21:32;;;;;;;16.60;7.30;;;;;;;-9.08;58.65;99476.81;79113;1305;3012831;-74
2024/01/13 00:23:59;;;;;;;19.40;8.20;;;;;;;-9.38;59.37;99473.19;79077;1306;3011925;-72
2024/01/13 00:26:27;;;;;;;18.00;7.80;;;;;;;-9.82;60.54;99470.60;77810;1306;3028502;-72
2024/01/13 00:28:54;;;;;;;22.30;7.10;;;;;;;-10.00;61.02;99474.09;79017;1306;3013525;-70
2024/01/13 00:31:21;;;;;;;9.60;3.30;;;;;;;-10.09;61.62;99467.30;79035;1305;3011656;-72
2024/01/13 00:33:48;;;;;;;12.70;4.20;;;;;;;-9.72;61.65;99465.71;77831;1306;3057422;-71
2024/01/13 00:36:15;;;;;;;6.60;2.70;;;;;;;-9.03;60.49;99468.42;79094;1300;3021221;-71
2024/01/13 00:38:41;;;;;;;7.30;3.10;;;;;;;-8.93;59.27;99473.52;79005;1300;3012005;-71
2024/01/13 00:41:09;;;;;;;11.20;3.90;;;;;;;-9.14;59.48;99475.85;77820;1305;3026225;-72
2024/01/13 00:43:36;;;;;;;8.70;3.20;;;;;;;-9.42;59.45;99472.42;79025;1301;3018495;-72
2024/01/13 00:46:03;;;;;;;8.50;3.40;;;;;;;-9.67;60.52;99470.40;79022;1301;3013710;-72
2024/01/13 00:48:31;;;;;;;7.00;3.50;;;;;;;-9.83;60.86;99470.73;77866;1305;3026170;-73
2024/01/13 00:50:59;;;;;;;6.10;1.80;;;;;;;-10.06;61.24;99463.46;79032;1301;3013800;-71
2024/01/13 00:53:26;;;;;;;5.60;2.20;;;;;;;-9.83;61.43;99464.97;79063;1307;3011999;-73
2024/01/13 00:55:54;;;;;;;5.60;2.40;;;;;;;-9.18;60.38;99463.90;77910;1305;3051937;-74
2024/01/13 00:58:21;;;;;;;5.90;3.10;;;;;;;-8.76;59.06;99464.48;79034;1304;3013567;-72
2024/01/13 01:00:47;;;;;;;10.50;4.10;;;;;;;-8.84;58.84;99463.48;79052;1305;3011624;-70
2024/01/13 01:03:15;;;;;;;14.70;5.20;;;;;;;-9.12;59.19;99464.52;77915;1305;3026433;-71
2024/01/13 01:05:42;;;;;;;9.90;4.80;;;;;;;-9.25;59.38;99457.48;79128;1301;3012984;-72
2024/01/13 01:08:08;;;;;;;12.30;5.70;;;;;;;-9.50;60.01;99450.06;79104;1301;3013422;-73
2024/01/13 01:10:36;;;;;;;17.50;6.50;;;;;;;-9.67;60.55;99457.02;77895;1306;3027252;-71
2024/01/13 01:13:03;;;;;;;9.10;3.40;;;;;;;-9.89;61.39;99458.07;79116;1304;3013274;-70
2024/01/13 01:15:29;;;;;;;26.80;11.20;;;;;;;-9.49;61.40;99460.76;79051;1304;3013050;-73
2024/01/13 01:17:57;;;;;;;38.90;13.80;;;;;;;-9.06;59.65;99464.28;77908;1301;3025942;-69
2024/01/13 01:20:24;;;;;;;77.00;27.30;;;;;;;-9.21;58.67;99465.52;79034;1301;3018984;-73
2024/01/13 01:22:51;;;;;;;78.40;29.60;;;;;;;-9.69;59.94;99464.07;79079;1304;3014208;-73
2024/01/13 01:25:19;;;;;;;38.40;16.30;;;;;;;-9.72;60.44;99461.30;77920;1307;3026825;-72
2024/01/13 01:27:46;;;;;;;39.90;15.60;;;;;;;-9.48;59.43;99456.04;78816;1303;3013241;-70
2024/01/13 01:30:13;;;;;;;50.20;19.60;;;;;;;-9.67;59.27;99450.20;79087;1301;3011694;-71
2024/01/13 01:32:41;;;;;;;35.80;14.60;;;;;;;-10.10;60.39;99449.98;77868;1301;3025704;-74
2024/01/13 01:35:07;;;;;;;17.70;7.80;;;;;;;-10.22;61.64;99443.96;79079;1301;3013665;-74
2024/01/13 01:37:34;;;;;;;36.20;14.70;;;;;;;-9.45;60.08;99442.00;79109;1303;3011669;-72
2024/01/13 01:40:03;;;;;;;35.40;13.70;;;;;;;-9.05;58.63;99438.52;77837;1305;3026902;-70
2024/01/13 01:42:31;;;;;;;28.40;13.20;;;;;;;-8.86;58.53;99438.16;79074;1300;3013057;-74
2024/01/13 01:44:57;;;;;;;33.30;13.90;;;;;;;-8.80;59.16;99437.25;79122;1306;3011500;-75
2024/01/13 01:47:26;;;;;;;33.30;14.00;;;;;;;-9.03;58.35;99435.48;77843;1301;3055543;-72
2024/01/13 01:49:52;;;;;;;34.00;14.20;;;;;;;-9.36;58.44;99432.17;79027;1301;3013830;-70
2024/01/13 01:52:19;;;;;;;40.30;19.70;;;;;;;-9.75;59.27;99426.83;79047;1306;3012947;-73
2024/01/13 01:54:47;;;;;;;33.80;12.00;;;;;;;-9.94;60.08;99425.43;77797;1306;3053202;-71
2024/01/13 01:57:14;;;;;;;13.80;6.40;;;;;;;-9.99;60.57;99420.57;79137;1305;3013522;-69
2024/01/13 01:59:41;;;;;;;22.00;9.90;;;;;;;-9.35;59.64;99423.36;79094;1306;3011492;-73
2024/01/13 02:02:09;;;;;;;32.90;11.40;;;;;;;-8.97;58.23;99423.70;77821;1301;3056091;-74
2024/01/13 02:04:36;;;;;;;28.50;10.40;;;;;;;-8.91;58.12;99425.67;79177;1301;3014748;-72
2024/01/13 02:07:02;;;;;;;29.40;10.90;;;;;;;-9.22;58.14;99425.28;78987;1301;3011604;-71
2024/01/13 02:09:31;;;;;;;25.80;10.30;;;;;;;-9.69;58.47;99421.86;77894;1304;3052314;-71
2024/01/13 02:11:58;;;;;;;27.70;9.70;;;;;;;-10.04;59.10;99427.58;79023;1305;3014887;-71
2024/01/13 02:14:25;;;;;;;14.60;6.20;;;;;;;-10.21;59.65;99427.05;79034;1305;3011676;-72
2024/01/13 02:16:53;;;;;;;10.00;4.40;;;;;;;-10.34;60.33;99426.60;77876;1305;3055243;-73
2024/01/13 02:19:20;;;;;;;17.40;6.90;;;;;;;-9.67;59.85;99427.31;79131;1306;3014099;-71
2024/01/13 02:21:46;;;;;;;25.80;9.50;;;;;;;-9.27;58.62;99426.55;79055;1305;3011775;-69
2024/01/13 02:24:14;;;;;;;18.30;9.30;;;;;;;-9.67;58.59;99419.36;77872;1306;3026423;-71
2024/01/13 02:26:41;;;;;;;35.00;12.70;;;;;;;-9.56;59.12;99422.77;79117;1303;3018196;-74
2024/01/13 02:29:07;;;;;;;22.10;8.70;;;;;;;-9.64;58.80;99422.12;79107;1301;3011708;-73
2024/01/13 02:31:35;;;;;;;20.70;9.30;;;;;;;-9.98;58.98;99422.63;77900;1300;3027724;-72
2024/01/13 02:34:01;;;;;;;12.00;5.00;;;;;;;-10.18;59.36;99425.92;79107;1301;3018566;-70
2024/01/13 02:36:28;;;;;;;15.70;5.60;;;;;;;-10.34;59.96;99429.49;79079;1303;3011450;-73
2024/01/13 02:38:56;;;;;;;23.60;9.50;;;;;;;-9.96;59.95;99428.08;77957;1305;3026657;-73
2024/01/13 02:41:23;;;;;;;34.70;12.80;;;;;;;-9.55;59.31;99430.77;79085;1305;3019413;-74
2024/01/13 02:43:49;;;;;;;34.00;12.90;;;;;;;-10.21;60.23;99431.27;79118;1302;3011798;-73
2024/01/13 02:46:17;;;;;;;33.10;11.90;;;;;;;-10.80;61.13;99428.58;77869;1305;3025943;-71
2024/01/13 02:48:45;;;;;;;30.90;13.80;;;;;;;-11.06;62.34;99432.69;79167;1300;3018407;-71
2024/01/13 02:51:14;;;;;;;13.80;6.30;;;;;;;-11.37;64.00;99428.14;79094;1306;3011826;-73
2024/01/13 02:53:41;;;;;;;16.10;5.50;;;;;;;-11.15;62.92;99419.77;78081;1304;3052283;-73
2024/01/13 02:56:08;;;;;;;19.90;8.50;;;;;;;-10.75;61.75;99419.39;79439;1300;3013164;-73
2024/01/13 02:58:35;;;;;;;22.00;9.40;;;;;;;-10.57;61.29;99418.80;79170;1303;3011652;-72
2024/01/13 03:01:06;;;;;;;15.90;6.60;;;;;;;-10.88;61.48;99417.39;78014;1303;3026648;-69
2024/01/13 03:03:34;;;;;;;21.50;8.70;;;;;;;-10.75;61.04;99416.17;79644;1302;3011650;-70
2024/01/13 03:06:03;;;;;;;18.60;8.30;;;;;;;-10.92;60.79;99411.89;77788;1301;3053101;-71
2024/01/13 03:08:30;;;;;;;14.20;5.70;;;;;;;-11.09;60.98;99408.25;79258;1307;3013742;-73
2024/01/13 03:10:56;;;;;;;11.70;4.90;;;;;;;-10.85;61.53;99406.95;78981;1304;3011595;-73
2024/01/13 03:13:24;;;;;;;18.70;6.90;;;;;;;-10.08;60.10;99403.44;78042;1301;3068797;-73
2024/01/13 03:15:50;;;;;;;11.70;6.40;;;;;;;-10.19;59.19;99398.98;79024;1304;3013606;-71
2024/01/13 03:18:17;;;;;;;24.50;8.70;;;;;;;-10.37;60.03;99395.71;79100;1301;3011650;-73
2024/01/13 03:20:45;;;;;;;17.60;7.30;;;;;;;-10.47;60.10;99397.52;77855;1304;3025812;-70
2024/01/13 03:23:11;;;;;;;22.20;7.70;;;;;;;-10.75;60.13;99397.58;79141;1304;3012772;-73
2024/01/13 03:25:37;;;;;;;13.60;4.90;;;;;;;-11.07;60.89;99393.06;78987;1306;3013778;-69
2024/01/13 03:28:05;;;;;;;13.60;4.20;;;;;;;-11.14;61.69;99392.73;78063;1307;3026604;-68
2024/01/13 03:30:32;;;;;;;16.40;5.60;;;;;;;-10.26;60.93;99392.73;79175;1304;3013136;-70
2024/01/13 03:32:59;;;;;;;14.70;5.70;;;;;;;-9.69;59.80;99389.30;79119;1301;3013187;-71
2024/01/13 03:35:27;;;;;;;15.70;6.50;;;;;;;-9.86;59.20;99380.49;77848;1304;3026525;-71
2024/01/13 03:37:54;;;;;;;9.50;5.90;;;;;;;-10.38;59.46;99385.86;79156;1305;3012843;-69
2024/01/13 03:40:21;;;;;;;18.50;9.10;;;;;;;-10.99;60.60;99387.67;79047;1305;3012955;-68
2024/01/13 03:42:49;;;;;;;17.20;6.60;;;;;;;-11.24;61.92;99383.83;78061;1304;3026464;-68
2024/01/13 03:45:16;;;;;;;11.80;3.70;;;;;;;-11.53;63.11;99390.02;79323;1303;3014026;-65
2024/01/13 03:47:42;;;;;;;15.00;6.60;;;;;;;-11.06;62.80;99385.63;79249;1306;3011561;-71
2024/01/13 03:50:11;;;;;;;25.40;9.10;;;;;;;-10.10;61.35;99377.64;77977;1305;3053862;-70
2024/01/13 03:52:38;;;;;;;17.70;7.40;;;;;;;-9.86;60.25;99375.08;79442;1305;3012918;-68
2024/01/13 03:55:05;;;;;;;23.10;9.30;;;;;;;-10.28;59.58;99380.63;79389;1306;3011623;-69
2024/01/13 03:57:33;;;;;;;27.50;12.50;;;;;;;-10.84;60.42;99388.55;78213;1305;3067305;-72
2024/01/13 04:00:00;;;;;;;22.40;10.40;;;;;;;-11.06;60.95;99382.27;79297;1301;3013746;-69
2024/01/13 04:02:27;;;;;;;11.70;5.50;;;;;;;-11.24;61.15;99376.55;79144;1301;3014031;-71
2024/01/13 04:04:55;;;;;;;22.10;7.50;;;;;;;-10.51;60.88;99373.88;78150;1301;3052644;-71
2024/01/13 04:07:22;;;;;;;21.80;9.20;;;;;;;-10.28;60.17;99373.38;79318;1307;3019087;-72
2024/01/13 04:09:48;;;;;;;25.80;12.20;;;;;;;-10.57;60.51;99369.33;79287;1301;3011378;-69
2024/01/13 04:12:16;;;;;;;22.80;10.20;;;;;;;-11.10;62.02;99366.27;78081;1301;3026639;-71
2024/01/13 04:14:43;;;;;;;19.50;9.20;;;;;;;-10.77;61.16;99373.64;79312;1301;3013351;-68
2024/01/13 04:17:09;;;;;;;14.90;7.30;;;;;;;-11.19;60.72;99376.67;79403;1306;3013094;-67
2024/01/13 04:19:37;;;;;;;6.90;3.60;;;;;;;-11.63;62.46;99384.17;78121;1303;3028816;-70
2024/01/13 04:22:04;;;;;;;26.00;7.90;;;;;;;-11.61;63.31;99377.80;79395;1306;3013005;-69
2024/01/13 04:24:31;;;;;;;18.30;9.00;;;;;;;-11.25;63.36;99379.74;79266;1305;3011657;-68
2024/01/13 04:26:59;;;;;;;22.50;9.00;;;;;;;-11.48;62.90;99382.03;78404;1305;3069447;-69
2024/01/13 04:29:26;;;;;;;26.30;8.90;;;;;;;-11.75;63.41;99384.19;79515;1305;3013331;-68
2024/01/13 04:31:52;;;;;;;18.20;9.50;;;;;;;-11.78;63.95;99381.92;79637;1305;3011630;-70
2024/01/13 04:34:20;;;;;;;11.30;5.30;;;;;;;-12.07;64.69;99378.60;78047;1303;3025835;-72
2024/01/13 04:36:46;;;;;;;14.10;5.70;;;;;;;-12.35;65.81;99382.88;79270;1304;3019435;-71
2024/01/13 04:39:13;;;;;;;12.90;5.90;;;;;;;-11.78;65.07;99382.58;79155;1306;3011960;-72
2024/01/13 04:41:41;;;;;;;20.80;8.00;;;;;;;-11.07;63.50;99378.67;78109;1301;3025706;-71
2024/01/13 04:44:08;;;;;;;23.70;6.60;;;;;;;-11.55;63.61;99383.19;79285;1301;3013435;-70
2024/01/13 04:46:35;;;;;;;22.30;9.20;;;;;;;-11.82;64.18;99388.91;79256;1303;3011812;-71
2024/01/13 04:49:03;;;;;;;21.60;9.40;;;;;;;-12.29;65.66;99389.94;77998;1303;3025295;-70
2024/01/13 04:51:29;;;;;;;17.00;5.10;;;;;;;-12.51;67.15;99387.63;79165;1308;3013380;-73
2024/01/13 04:53:56;;;;;;;17.30;6.90;;;;;;;-12.02;66.85;99390.73;79154;1306;3011641;-68
2024/01/13 04:56:24;;;;;;;26.60;8.80;;;;;;;-11.53;65.19;99392.23;77937;1306;3025816;-72
2024/01/13 04:58:51;;;;;;;18.00;7.20;;;;;;;-11.44;64.64;99384.02;79219;1305;3013514;-69
2024/01/13 05:01:17;;;;;;;17.20;8.00;;;;;;;-11.78;64.85;99383.42;79174;1306;3012720;-72
2024/01/13 05:03:45;;;;;;;15.90;8.60;;;;;;;-12.16;66.10;99383.91;78063;1306;3026443;-72
2024/01/13 05:06:12;;;;;;;13.60;4.90;;;;;;;-12.29;67.42;99380.17;79229;1302;3013740;-68
2024/01/13 05:08:39;;;;;;;12.00;5.50;;;;;;;-12.32;67.43;99382.42;79141;1308;3011496;-71
2024/01/13 05:11:07;;;;;;;13.00;6.20;;;;;;;-11.86;66.85;99380.87;78084;1301;3067236;-70
2024/01/13 05:13:34;;;;;;;17.00;7.90;;;;;;;-11.85;66.28;99383.75;79128;1314;3018369;-69
2024/01/13 05:16:00;;;;;;;13.20;6.80;;;;;;;-11.60;66.23;99383.73;79076;1300;3011313;-70
2024/01/13 05:18:28;;;;;;;19.50;8.20;;;;;;;-11.79;65.84;99386.45;77906;1302;3028302;-69
2024/01/13 05:20:55;;;;;;;12.90;6.40;;;;;;;-12.17;66.66;99389.13;79104;1305;3013563;-67
2024/01/13 05:23:21;;;;;;;12.90;5.10;;;;;;;-12.31;67.44;99388.55;79100;1301;3013670;-71
2024/01/13 05:25:49;;;;;;;12.70;6.00;;;;;;;-11.98;66.79;99390.48;77978;1305;3028457;-71
2024/01/13 05:28:16;;;;;;;16.40;6.50;;;;;;;-11.57;65.38;99390.09;79240;1300;3018317;-72
2024/01/13 05:30:42;;;;;;;18.00;6.70;;;;;;;-11.70;65.07;99395.32;79211;1300;3012898;-72
2024/01/13 05:33:10;;;;;;;10.40;5.60;;;;;;;-11.56;64.96;99399.90;77984;1305;3024942;-70
2024/01/13 05:35:37;;;;;;;15.60;6.00;;;;;;;-11.92;65.91;99410.42;79409;1304;3013687;-70
2024/01/13 05:38:03;;;;;;;9.30;4.80;;;;;;;-12.21;66.48;99408.08;79156;1305;3011863;-71
2024/01/13 05:40:31;;;;;;;12.30;4.80;;;;;;;-12.24;67.83;99408.18;77857;1306;3026081;-70
2024/01/13 05:42:58;;;;;;;15.80;6.50;;;;;;;-11.55;66.18;99407.73;79180;1301;3013050;-68
2024/01/13 05:45:25;;;;;;;12.70;5.90;;;;;;;-11.24;65.13;99407.70;79146;1304;3011626;-68
2024/01/13 05:47:53;;;;;;;19.80;7.70;;;;;;;-11.28;64.52;99406.55;78185;1303;3026551;-71
2024/01/13 05:50:19;;;;;;;11.70;5.70;;;;;;;-11.55;65.23;99410.77;79188;1314;3013002;-68
2024/01/13 05:52:47;;;;;;;11.80;6.20;;;;;;;-12.26;66.52;99422.09;79158;1302;3011598;-73
2024/01/13 05:55:15;;;;;;;11.50;3.70;;;;;;;-12.53;68.12;99420.45;77994;1300;3068825;-69
2024/01/13 05:57:41;;;;;;;11.50;5.70;;;;;;;-12.05;67.56;99422.53;79274;1303;3013912;-70
2024/01/13 06:00:09;;;;;;;10.60;5.10;;;;;;;-11.31;65.53;99421.53;79132;1301;3012932;-71
2024/01/13 06:02:37;;;;;;;9.20;4.80;;;;;;;-11.78;65.65;99422.29;78164;1302;3051996;-74
2024/01/13 06:05:04;;;;;;;10.00;5.30;;;;;;;-12.33;66.86;99431.02;79192;1313;3013044;-72
2024/01/13 06:07:31;;;;;;;11.40;5.40;;;;;;;-12.65;67.95;99437.80;79217;1301;3013026;-74
2024/01/13 06:09:59;;;;;;;6.80;3.20;;;;;;;-12.78;68.61;99430.97;77937;1300;3026402;-68
2024/01/13 06:12:27;;;;;;;5.90;3.00;;;;;;;-12.72;68.59;99433.70;79166;1306;3018232;-71
2024/01/13 06:14:55;;;;;;;15.20;5.00;;;;;;;-11.85;67.56;99428.02;79157;1305;3012116;-70
2024/01/13 06:17:22;;;;;;;14.00;5.00;;;;;;;-11.62;65.49;99430.85;78334;1301;3052235;-70
2024/01/13 06:19:49;;;;;;;16.90;7.70;;;;;;;-11.53;65.07;99430.42;79170;1305;3012678;-71
2024/01/13 06:22:15;;;;;;;17.10;7.30;;;;;;;-12.08;65.58;99432.45;79229;1307;3013346;-69
2024/01/13 06:24:43;;;;;;;16.70;6.50;;;;;;;-12.11;66.29;99429.31;77916;1303;3026720;-72
2024/01/13 06:27:10;;;;;;;5.90;3.00;;;;;;;-12.46;66.76;99432.98;79151;1302;3018964;-72
2024/01/13 06:29:36;;;;;;;15.50;6.50;;;;;;;-11.99;67.74;99424.77;79232;1300;3011617;-72
2024/01/13 06:32:04;;;;;;;18.00;7.70;;;;;;;-11.65;65.99;99428.89;78122;1301;3025405;-66
2024/01/13 06:34:31;;;;;;;19.50;8.10;;;;;;;-11.37;65.61;99427.29;79304;1304;3013043;-70
2024/01/13 06:36:58;;;;;;;16.90;8.00;;;;;;;-11.48;64.60;99435.45;79225;1304;3011703;-70
2024/01/13 06:39:25;;;;;;;17.80;7.80;;;;;;;-11.61;64.69;99433.06;77973;1301;3026481;-67
2024/01/13 06:41:52;;;;;;;10.20;4.00;;;;;;;-11.87;65.36;99434.20;79176;1300;3013759;-72
2024/01/13 06:44:18;;;;;;;10.60;4.00;;;;;;;-11.57;65.62;99427.77;79210;1300;3011648;-71
2024/01/13 06:46:47;;;;;;;17.00;6.40;;;;;;;-10.99;64.23;99426.08;77874;1303;3051909;-67
2024/01/13 06:49:14;;;;;;;15.10;6.40;;;;;;;-11.12;63.46;99427.44;79049;1303;3018493;-69
2024/01/13 06:51:41;;;;;;;20.70;7.40;;;;;;;-11.15;64.07;99426.85;79121;1303;3011829;-70
2024/01/13 06:54:09;;;;;;;12.20;7.10;;;;;;;-11.33;64.43;99424.37;77844;1314;3067636;-68
2024/01/13 06:56:37;;;;;;;17.20;6.20;;;;;;;-11.56;65.17;99426.95;79114;1301;3013670;-68
2024/01/13 06:59:04;;;;;;;7.80;4.20;;;;;;;-11.66;65.75;99422.46;79133;1305;3012653;-68
2024/01/13 07:01:33;;;;;;;13.50;6.20;;;;;;;-11.42;66.75;99424.45;78674;1301;3052720;-71
2024/01/13 07:04:00;;;;;;;22.10;8.80;;;;;;;-10.46;64.38;99420.59;79416;1304;3012807;-69
2024/01/13 07:06:26;;;;;;;22.70;9.70;;;;;;;-9.91;62.65;99415.99;79215;1301;3011930;-69
2024/01/13 07:08:55;;;;;;;20.50;10.20;;;;;;;-10.04;61.86;99413.50;77940;1302;3026625;-70
2024/01/13 07:11:21;;;;;;;25.00;11.90;;;;;;;-10.22;62.15;99412.80;79233;1301;3013256;-74
2024/01/13 07:13:48;;;;;;;23.30;11.00;;;;;;;-10.34;63.20;99414.76;79113;1303;3011892;-74
2024/01/13 07:16:16;;;;;;;27.40;12.80;;;;;;;-10.49;63.02;99416.63;77902;1307;3052349;-73
2024/01/13 07:18:42;;;;;;;10.80;5.80;;;;;;;-10.74;64.38;99420.28;79227;1303;3013361;-73
2024/01/13 07:21:09;;;;;;;17.30;7.70;;;;;;;-10.32;64.31;99419.84;79120;1301;3012913;-73
2024/01/13 07:23:37;;;;;;;23.20;10.60;;;;;;;-9.47;62.28;99418.73;77938;1301;3025113;-75
2024/01/13 07:26:03;;;;;;;26.40;10.70;;;;;;;-9.30;61.12;99417.35;79359;1300;3013350;-74
2024/01/13 07:28:30;;;;;;;37.40;15.50;;;;;;;-9.48;61.03;99421.41;79276;1301;3013256;-74
2024/01/13 07:30:58;;;;;;;29.00;12.10;;;;;;;-10.04;62.20;99422.16;77990;1305;3025896;-75
2024/01/13 07:33:24;;;;;;;27.20;12.10;;;;;;;-10.04;63.05;99422.48;79632;1306;3019779;-73
2024/01/13 07:35:51;;;;;;;35.50;15.30;;;;;;;-10.21;63.64;99420.10;79297;1303;3011675;-74
2024/01/13 07:38:19;;;;;;;34.40;13.90;;;;;;;-10.19;64.23;99423.19;78026;1307;3026089;-75
2024/01/13 07:40:46;;;;;;;20.20;8.80;;;;;;;-10.24;64.07;99423.09;79227;1301;3012764;-70
2024/01/13 07:43:13;;;;;;;17.90;7.40;;;;;;;-9.98;63.98;99422.13;79196;1301;3011601;-73
2024/01/13 07:45:41;;;;;;;26.70;11.00;;;;;;;-9.08;61.60;99419.11;78103;1301;3053135;-74
2024/01/13 07:48:07;;;;;;;21.70;9.60;;;;;;;-8.80;60.11;99421.80;79148;1305;3018413;-74
2024/01/13 07:50:34;;;;;;;21.50;9.20;;;;;;;-9.00;59.71;99422.47;79063;1306;3013632;-71
2024/01/13 07:53:02;;;;;;;24.50;9.70;;;;;;;-9.33;60.53;99427.48;78390;1301;3026461;-75
2024/01/13 07:55:28;;;;;;;20.60;9.00;;;;;;;-9.57;61.20;99423.45;79575;1304;3013800;-73
2024/01/13 07:57:55;;;;;;;24.90;11.20;;;;;;;-9.68;61.57;99426.11;79041;1301;3012210;-74
2024/01/13 08:00:25;;;;;;;24.30;11.00;;;;;;;-9.74;62.68;99431.95;77873;1301;3028314;-73
2024/01/13 08:02:52;;;;;;;17.90;9.50;;;;;;;-9.59;62.38;99433.07;79198;1305;3011819;-76
2024/01/13 08:05:22;;;;;;;19.20;9.80;;;;;;;-9.72;63.08;99442.32;78628;1303;3011797;-75
2024/01/13 08:07:49;;;;;;;17.70;7.70;;;;;;;-9.97;63.66;99451.29;79176;1301;3011947;-73
2024/01/13 08:10:16;;;;;;;17.10;7.30;;;;;;;-9.79;63.73;99455.88;79104;1306;3011653;-74
2024/01/13 08:12:43;;;;;;;22.50;8.50;;;;;;;-8.76;61.79;99451.71;77882;1302;3025880;-74
2024/01/13 08:15:10;;;;;;;24.20;9.50;;;;;;;-8.40;59.14;99450.09;79205;1301;3013242;-75
2024/01/13 08:17:37;;;;;;;22.40;9.10;;;;;;;-8.26;58.89;99452.66;79154;1304;3011826;-74
2024/01/13 08:20:06;;;;;;;19.40;9.40;;;;;;;-8.17;58.36;99447.38;77963;1308;3025589;-73
2024/01/13 08:22:33;;;;;;;17.80;8.60;;;;;;;-8.29;58.91;99453.31;79162;1300;3011962;-73
2024/01/13 08:25:00;;;;;;;21.90;9.70;;;;;;;-8.22;59.00;99450.52;79306;1300;3011662;-75
2024/01/13 08:27:28;;;;;;;24.50;9.80;;;;;;;-8.30;58.85;99450.23;77999;1306;3055969;-74
2024/01/13 08:29:54;;;;;;;21.90;9.80;;;;;;;-8.19;59.15;99442.24;79098;1306;3019143;-74
2024/01/13 08:32:21;;;;;;;25.30;10.80;;;;;;;-8.29;58.48;99442.77;79303;1301;3011828;-73
2024/01/13 08:34:50;;;;;;;24.80;10.40;;;;;;;-8.38;58.90;99442.81;77910;1305;3026693;-75
2024/01/13 08:37:16;;;;;;;24.20;11.10;;;;;;;-8.39;58.63;99441.11;79047;1305;3013840;-73
2024/01/13 08:39:43;;;;;;;28.20;11.30;;;;;;;-8.13;58.49;99431.11;79069;1305;3011892;-75
2024/01/13 08:42:11;;;;;;;24.40;11.30;;;;;;;-8.05;59.04;99429.53;77837;1306;3056530;-74
2024/01/13 08:44:37;;;;;;;26.80;10.90;;;;;;;-8.17;58.44;99426.64;79148;1301;3012994;-75
2024/01/13 08:47:04;;;;;;;32.10;12.00;;;;;;;-8.17;59.09;99426.64;79053;1300;3013139;-74
2024/01/13 08:49:32;;;;;;;21.60;11.30;;;;;;;-7.99;58.55;99424.67;77880;1305;3027587;-74
2024/01/13 08:51:58;;;;;;;27.60;11.20;;;;;;;-8.14;58.58;99427.19;79302;1306;3013283;-72
2024/01/13 08:54:25;;;;;;;30.00;12.20;;;;;;;-8.27;59.10;99420.70;79043;1301;3011584;-73
2024/01/13 08:56:53;;;;;;;24.80;10.60;;;;;;;-8.39;59.63;99427.50;77918;1301;3025160;-72
2024/01/13 08:59:19;;;;;;;26.00;11.00;;;;;;;-8.42;59.21;99423.55;79101;1307;3013735;-72
2024/01/13 09:01:46;;;;;;;22.80;9.80;;;;;;;-8.48;59.73;99418.73;79145;1301;3011889;-72
2024/01/13 09:04:13;;;;;;;28.50;11.70;;;;;;;-8.62;59.97;99419.88;77916;1305;3025920;-73
2024/01/13 09:06:41;;;;;;;21.20;8.60;;;;;;;-8.65;60.26;99422.04;79058;1301;3013925;-72
2024/01/13 09:09:08;;;;;;;19.90;8.10;;;;;;;-8.73;60.41;99418.02;79086;1301;3013208;-73
2024/01/13 09:11:37;;;;;;;23.00;8.40;;;;;;;-8.87;60.29;99415.91;77860;1305;3057120;-72
2024/01/13 09:14:03;;;;;;;27.80;8.60;;;;;;;-8.81;60.99;99414.98;79224;1301;3018515;-70
2024/01/13 09:16:30;;;;;;;17.60;7.90;;;;;;;-8.79;60.43;99410.09;79052;1302;3011307;-71
2024/01/13 09:18:58;;;;;;;17.00;7.50;;;;;;;-8.68;60.34;99410.27;77791;1306;3027603;-72
2024/01/13 09:21:24;;;;;;;12.00;6.10;;;;;;;-8.91;60.27;99411.92;79229;1305;3013099;-72
2024/01/13 09:23:51;;;;;;;14.00;7.20;;;;;;;-9.06;60.74;99411.52;79130;1303;3011593;-71
2024/01/13 09:26:19;;;;;;;14.90;6.80;;;;;;;-8.96;61.06;99408.13;78072;1303;3027655;-72
2024/01/13 09:28:46;;;;;;;16.30;6.90;;;;;;;-8.95;61.12;99414.25;79402;1301;3013593;-72
2024/01/13 09:31:12;;;;;;;22.40;8.10;;;;;;;-8.43;60.87;99405.89;79054;1303;3011422;-73
2024/01/13 09:33:40;;;;;;;22.90;8.20;;;;;;;-8.40;60.24;99402.18;78036;1305;3026785;-73
2024/01/13 09:36:07;;;;;;;14.20;6.80;;;;;;;-8.39;60.33;99399.31;79029;1302;3012846;-74
2024/01/13 09:38:34;;;;;;;20.70;8.30;;;;;;;-8.50;60.59;99400.02;79142;1306;3011433;-73
2024/01/13 09:41:02;;;;;;;16.40;7.60;;;;;;;-8.53;60.80;99391.80;77783;1306;3025858;-75
2024/01/13 09:43:31;;;;;;;18.30;7.10;;;;;;;-8.40;60.62;99394.18;79124;1303;3018474;-74
2024/01/13 09:45:58;;;;;;;13.00;5.60;;;;;;;-8.52;60.69;99397.77;79090;1301;3011794;-74
2024/01/13 09:48:26;;;;;;;12.80;6.10;;;;;;;-8.43;59.96;99393.48;78064;1303;3052249;-74
2024/01/13 09:50:52;;;;;;;15.70;6.40;;;;;;;-8.51;60.76;99388.95;79083;1303;3014172;-73
2024/01/13 09:53:29;;;;;;;17.50;8.00;;;;;;;-8.49;60.78;99387.79;79120;1301;3013558;-74
2024/01/13 09:56:07;;;;;;;16.80;6.70;;;;;;;-8.44;61.27;99388.72;78050;1304;3057078;-74
2024/01/13 09:58:35;;;;;;;18.80;6.80;;;;;;;-8.53;61.45;99394.55;77945;1301;3049622;-70
2024/01/13 10:01:03;;;;;;;23.80;6.60;;;;;;;-8.34;61.13;99395.63;79151;1307;3013995;-73
2024/01/13 10:03:30;;;;;;;18.80;7.30;;;;;;;-8.33;61.59;99397.34;79141;1301;3011939;-72
2024/01/13 10:05:57;;;;;;;15.10;7.00;;;;;;;-7.90;61.20;99393.84;78048;1303;3051599;-74
2024/01/13 10:08:31;;;;;;;24.20;8.70;;;;;;;-7.84;59.96;99392.39;79151;1301;3019306;-74
2024/01/13 10:11:00;;;;;;;25.20;7.90;;;;;;;-8.03;60.18;99398.95;77911;1301;3057439;-75
2024/01/13 10:13:27;;;;;;;15.10;6.10;;;;;;;-8.17;59.89;99399.61;79179;1301;3013968;-73
2024/01/13 10:15:54;;;;;;;14.60;5.50;;;;;;;-8.66;60.30;99394.85;79317;1303;3011612;-73
2024/01/13 10:18:23;;;;;;;11.00;5.00;;;;;;;-8.63;61.02;99383.52;77976;1304;3051932;-75
2024/01/13 10:20:50;;;;;;;19.10;7.00;;;;;;;-8.38;60.58;99379.94;79363;1303;3014566;-73
2024/01/13 10:23:17;;;;;;;18.60;7.60;;;;;;;-8.38;60.82;99383.52;79257;1301;3011292;-73
2024/01/13 10:25:44;;;;;;;15.30;6.10;;;;;;;-8.47;61.23;99381.71;78053;1300;3056733;-73
2024/01/13 10:28:11;;;;;;;14.40;6.10;;;;;;;-8.39;61.08;99379.59;79227;1300;3018401;-72
2024/01/13 10:30:38;;;;;;;13.40;6.30;;;;;;;-8.25;61.38;99380.98;79253;1303;3012068;-71
2024/01/13 10:33:05;;;;;;;15.50;6.30;;;;;;;-8.08;61.06;99374.06;77930;1304;3026623;-74
2024/01/13 10:35:33;;;;;;;13.00;6.00;;;;;;;-8.14;60.74;99373.64;79051;1303;3018892;-74
2024/01/13 10:37:59;;;;;;;12.00;6.10;;;;;;;-8.19;60.41;99372.22;79132;1303;3011605;-73
2024/01/13 10:40:27;;;;;;;13.90;6.90;;;;;;;-8.41;60.48;99374.48;77974;1305;3027549;-72
2024/01/13 10:42:57;;;;;;;12.80;5.70;;;;;;;-8.74;61.72;99373.48;79405;1301;3013459;-71
2024/01/13 10:45:25;;;;;;;18.50;6.40;;;;;;;-8.87;62.57;99363.63;78673;1301;3013485;-70
2024/01/13 10:47:53;;;;;;;15.30;6.60;;;;;;;-8.55;62.39;99356.45;79096;1303;3013556;-70
2024/01/13 10:50:20;;;;;;;16.00;6.90;;;;;;;-8.55;62.09;99358.30;79180;1306;3011493;-73
2024/01/13 10:52:57;;;;;;;12.80;5.10;;;;;;;-8.70;62.79;99347.90;78091;1304;3068322;-73
2024/01/13 10:55:26;;;;;;;13.70;5.70;;;;;;;-8.50;62.70;99347.19;78047;1301;3050842;-73
2024/01/13 10:57:52;;;;;;;12.90;5.20;;;;;;;-8.57;62.12;99345.73;79680;1301;3013769;-71
2024/01/13 11:00:19;;;;;;;15.00;6.40;;;;;;;-8.44;62.39;99338.93;79078;1301;3011846;-74
2024/01/13 11:02:47;;;;;;;13.10;6.30;;;;;;;-8.26;62.03;99341.54;77794;1309;3049887;-77
2024/01/13 11:05:14;;;;;;;16.30;6.50;;;;;;;-8.25;61.86;99341.04;79310;1303;3013739;-72